sensor_id;sensor_type;location;lat;lon;timestamp;temperature;humidity
40622;DHT22;26324;52.040;11.528;2023-07-08T00:00:44;19.10;59.00
40622;DHT22;26324;52.040;11.528;2023-07-08T00:03:17;19.10;58.10
40622;DHT22;26324;52.040;11.528;2023-07-08T00:05:46;19.10;57.80
40622;DHT22;26324;52.040;11.528;2023-07-08T00:08:15;19.10;57.90
40622;DHT22;26324;52.040;11.528;2023-07-08T00:10:42;19.00;58.00
40622;DHT22;26324;52.040;11.528;2023-07-08T00:13:10;18.90;58.50
40622;DHT22;26324;52.040;11.528;2023-07-08T00:15:39;18.90;58.30
40622;DHT22;26324;52.040;11.528;2023-07-08T00:18:13;18.90;58.40
40622;DHT22;26324;52.040;11.528;2023-07-08T00:20:46;18.70;58.70
40622;DHT22;26324;52.040;11.528;2023-07-08T00:23:18;18.60;59.30
40622;DHT22;26324;52.040;11.528;2023-07-08T00:25:49;18.40;60.00
40622;DHT22;26324;52.040;11.528;2023-07-08T00:28:19;18.30;61.50
40622;DHT22;26324;52.040;11.528;2023-07-08T00:30:49;18.10;62.00
40622;DHT22;26324;52.040;11.528;2023-07-08T00:33:17;18.10;62.70
40622;DHT22;26324;52.040;11.528;2023-07-08T00:35:45;18.10;63.20
40622;DHT22;26324;52.040;11.528;2023-07-08T00:38:27;18.20;62.40
40622;DHT22;26324;52.040;11.528;2023-07-08T00:41:16;18.20;63.20
40622;DHT22;26324;52.040;11.528;2023-07-08T00:43:52;18.20;63.10
40622;DHT22;26324;52.040;11.528;2023-07-08T00:46:37;18.10;63.00
40622;DHT22;26324;52.040;11.528;2023-07-08T00:49:15;18.00;63.40
40622;DHT22;26324;52.040;11.528;2023-07-08T00:51:45;18.00;64.90
40622;DHT22;26324;52.040;11.528;2023-07-08T00:54:14;17.90;65.30
40622;DHT22;26324;52.040;11.528;2023-07-08T00:56:57;18.00;63.30
40622;DHT22;26324;52.040;11.528;2023-07-08T00:59:33;18.00;62.00
40622;DHT22;26324;52.040;11.528;2023-07-08T01:02:05;17.80;61.80
40622;DHT22;26324;52.040;11.528;2023-07-08T01:07:12;17.50;62.70
40622;DHT22;26324;52.040;11.528;2023-07-08T01:09:42;17.30;63.30
40622;DHT22;26324;52.040;11.528;2023-07-08T01:12:14;17.20;64.40
40622;DHT22;26324;52.040;11.528;2023-07-08T01:14:45;17.20;65.80
40622;DHT22;26324;52.040;11.528;2023-07-08T01:17:17;17.20;65.90
40622;DHT22;26324;52.040;11.528;2023-07-08T01:19:47;17.20;65.80
40622;DHT22;26324;52.040;11.528;2023-07-08T01:22:17;17.20;64.80
40622;DHT22;26324;52.040;11.528;2023-07-08T01:24:47;17.20;64.70
40622;DHT22;26324;52.040;11.528;2023-07-08T01:27:21;17.30;64.40
40622;DHT22;26324;52.040;11.528;2023-07-08T01:29:49;17.50;64.30
40622;DHT22;26324;52.040;11.528;2023-07-08T01:32:19;17.40;63.30
40622;DHT22;26324;52.040;11.528;2023-07-08T01:34:46;17.20;63.10
40622;DHT22;26324;52.040;11.528;2023-07-08T01:37:42;17.00;63.80
40622;DHT22;26324;52.040;11.528;2023-07-08T01:42:46;16.70;66.30
40622;DHT22;26324;52.040;11.528;2023-07-08T01:45:15;16.60;67.20
40622;DHT22;26324;52.040;11.528;2023-07-08T01:47:47;16.70;67.10
40622;DHT22;26324;52.040;11.528;2023-07-08T01:50:18;16.80;67.30
40622;DHT22;26324;52.040;11.528;2023-07-08T01:52:47;16.80;66.10
40622;DHT22;26324;52.040;11.528;2023-07-08T01:55:19;16.80;65.50
40622;DHT22;26324;52.040;11.528;2023-07-08T01:57:47;16.70;66.00
40622;DHT22;26324;52.040;11.528;2023-07-08T02:00:15;16.60;66.20
40622;DHT22;26324;52.040;11.528;2023-07-08T02:02:43;16.60;66.00
40622;DHT22;26324;52.040;11.528;2023-07-08T02:07:38;16.50;66.60
40622;DHT22;26324;52.040;11.528;2023-07-08T02:10:05;16.50;66.50
40622;DHT22;26324;52.040;11.528;2023-07-08T02:12:33;16.40;66.50
40622;DHT22;26324;52.040;11.528;2023-07-08T02:15:01;16.30;66.80
40622;DHT22;26324;52.040;11.528;2023-07-08T02:17:29;16.10;67.60
40622;DHT22;26324;52.040;11.528;2023-07-08T02:19:56;16.10;68.20
40622;DHT22;26324;52.040;11.528;2023-07-08T02:22:23;16.10;68.20
40622;DHT22;26324;52.040;11.528;2023-07-08T02:24:51;16.10;68.30
40622;DHT22;26324;52.040;11.528;2023-07-08T02:27:18;16.10;68.30
40622;DHT22;26324;52.040;11.528;2023-07-08T02:29:47;16.10;68.10
40622;DHT22;26324;52.040;11.528;2023-07-08T02:32:14;16.10;68.20
40622;DHT22;26324;52.040;11.528;2023-07-08T02:34:41;16.10;68.80
40622;DHT22;26324;52.040;11.528;2023-07-08T02:37:11;16.20;68.30
40622;DHT22;26324;52.040;11.528;2023-07-08T02:39:40;16.30;66.90
40622;DHT22;26324;52.040;11.528;2023-07-08T02:42:08;16.10;67.10
40622;DHT22;26324;52.040;11.528;2023-07-08T02:44:36;16.00;67.00
40622;DHT22;26324;52.040;11.528;2023-07-08T02:47:05;15.90;67.60
40622;DHT22;26324;52.040;11.528;2023-07-08T02:49:35;15.80;67.90
40622;DHT22;26324;52.040;11.528;2023-07-08T02:52:03;15.70;68.10
40622;DHT22;26324;52.040;11.528;2023-07-08T02:54:30;15.70;68.40
40622;DHT22;26324;52.040;11.528;2023-07-08T02:56:57;15.60;68.50
40622;DHT22;26324;52.040;11.528;2023-07-08T02:59:25;15.50;68.30
40622;DHT22;26324;52.040;11.528;2023-07-08T03:01:54;15.40;68.80
40622;DHT22;26324;52.040;11.528;2023-07-08T03:04:22;15.40;69.30
40622;DHT22;26324;52.040;11.528;2023-07-08T03:06:53;15.30;69.60
40622;DHT22;26324;52.040;11.528;2023-07-08T03:09:23;15.30;69.40
40622;DHT22;26324;52.040;11.528;2023-07-08T03:11:50;15.30;69.60
40622;DHT22;26324;52.040;11.528;2023-07-08T03:14:17;15.20;70.00
40622;DHT22;26324;52.040;11.528;2023-07-08T03:16:45;15.20;70.70
40622;DHT22;26324;52.040;11.528;2023-07-08T03:19:12;15.30;71.20
40622;DHT22;26324;52.040;11.528;2023-07-08T03:21:42;15.30;70.90
40622;DHT22;26324;52.040;11.528;2023-07-08T03:24:10;15.40;69.50
40622;DHT22;26324;52.040;11.528;2023-07-08T03:26:44;15.50;68.80
40622;DHT22;26324;52.040;11.528;2023-07-08T03:29:17;15.40;68.90
40622;DHT22;26324;52.040;11.528;2023-07-08T03:31:46;15.30;69.40
40622;DHT22;26324;52.040;11.528;2023-07-08T03:34:16;15.20;69.50
40622;DHT22;26324;52.040;11.528;2023-07-08T03:36:45;15.10;70.30
40622;DHT22;26324;52.040;11.528;2023-07-08T03:39:21;15.10;70.70
40622;DHT22;26324;52.040;11.528;2023-07-08T03:41:50;15.10;71.60
40622;DHT22;26324;52.040;11.528;2023-07-08T03:44:18;15.30;71.90
40622;DHT22;26324;52.040;11.528;2023-07-08T03:46:47;15.50;70.90
40622;DHT22;26324;52.040;11.528;2023-07-08T03:49:19;15.60;70.40
40622;DHT22;26324;52.040;11.528;2023-07-08T03:51:52;15.60;70.20
40622;DHT22;26324;52.040;11.528;2023-07-08T03:54:24;15.60;70.50
40622;DHT22;26324;52.040;11.528;2023-07-08T03:56:54;15.60;70.80
40622;DHT22;26324;52.040;11.528;2023-07-08T03:59:24;15.50;71.10
40622;DHT22;26324;52.040;11.528;2023-07-08T04:01:53;15.60;71.40
40622;DHT22;26324;52.040;11.528;2023-07-08T04:04:21;15.60;71.60
40622;DHT22;26324;52.040;11.528;2023-07-08T04:06:49;15.60;71.20
40622;DHT22;26324;52.040;11.528;2023-07-08T04:09:17;15.70;71.10
40622;DHT22;26324;52.040;11.528;2023-07-08T04:11:44;15.80;70.90
40622;DHT22;26324;52.040;11.528;2023-07-08T04:14:12;15.90;70.80
40622;DHT22;26324;52.040;11.528;2023-07-08T04:16:43;15.90;70.90
40622;DHT22;26324;52.040;11.528;2023-07-08T04:19:13;16.00;71.60
40622;DHT22;26324;52.040;11.528;2023-07-08T04:21:43;16.10;71.20
40622;DHT22;26324;52.040;11.528;2023-07-08T04:24:13;16.10;71.60
40622;DHT22;26324;52.040;11.528;2023-07-08T04:26:41;16.30;71.30
40622;DHT22;26324;52.040;11.528;2023-07-08T04:29:15;16.30;71.10
40622;DHT22;26324;52.040;11.528;2023-07-08T04:31:43;16.50;71.30
40622;DHT22;26324;52.040;11.528;2023-07-08T04:34:11;16.60;71.30
40622;DHT22;26324;52.040;11.528;2023-07-08T04:36:38;16.70;71.10
40622;DHT22;26324;52.040;11.528;2023-07-08T04:39:06;16.80;71.20
40622;DHT22;26324;52.040;11.528;2023-07-08T04:41:37;16.90;71.70
40622;DHT22;26324;52.040;11.528;2023-07-08T04:44:11;17.00;71.70
40622;DHT22;26324;52.040;11.528;2023-07-08T04:46:48;17.10;72.20
40622;DHT22;26324;52.040;11.528;2023-07-08T04:49:18;17.10;72.00
40622;DHT22;26324;52.040;11.528;2023-07-08T04:51:46;17.30;72.10
40622;DHT22;26324;52.040;11.528;2023-07-08T04:54:13;17.20;71.80
40622;DHT22;26324;52.040;11.528;2023-07-08T04:56:46;17.30;71.80
40622;DHT22;26324;52.040;11.528;2023-07-08T04:59:18;17.20;71.80
40622;DHT22;26324;52.040;11.528;2023-07-08T05:01:46;17.30;72.40
40622;DHT22;26324;52.040;11.528;2023-07-08T05:04:18;17.30;73.00
40622;DHT22;26324;52.040;11.528;2023-07-08T05:06:46;17.40;73.30
40622;DHT22;26324;52.040;11.528;2023-07-08T05:09:14;17.50;72.90
40622;DHT22;26324;52.040;11.528;2023-07-08T05:11:44;17.60;72.60
40622;DHT22;26324;52.040;11.528;2023-07-08T05:14:12;17.80;71.90
40622;DHT22;26324;52.040;11.528;2023-07-08T05:16:40;18.00;71.50
40622;DHT22;26324;52.040;11.528;2023-07-08T05:19:08;18.10;70.90
40622;DHT22;26324;52.040;11.528;2023-07-08T05:21:35;18.30;70.50
40622;DHT22;26324;52.040;11.528;2023-07-08T05:24:04;18.40;70.10
40622;DHT22;26324;52.040;11.528;2023-07-08T05:26:32;18.60;69.30
40622;DHT22;26324;52.040;11.528;2023-07-08T05:29:00;18.70;69.00
40622;DHT22;26324;52.040;11.528;2023-07-08T05:31:28;18.90;68.20
40622;DHT22;26324;52.040;11.528;2023-07-08T05:34:14;19.00;67.70
40622;DHT22;26324;52.040;11.528;2023-07-08T05:36:43;19.10;67.40
40622;DHT22;26324;52.040;11.528;2023-07-08T05:39:10;19.30;67.20
40622;DHT22;26324;52.040;11.528;2023-07-08T05:41:38;19.40;67.10
40622;DHT22;26324;52.040;11.528;2023-07-08T05:44:05;19.50;67.00
40622;DHT22;26324;52.040;11.528;2023-07-08T05:46:32;19.60;66.10
40622;DHT22;26324;52.040;11.528;2023-07-08T05:49:00;19.80;64.90
40622;DHT22;26324;52.040;11.528;2023-07-08T05:51:28;19.90;63.80
40622;DHT22;26324;52.040;11.528;2023-07-08T05:53:55;20.00;62.70
40622;DHT22;26324;52.040;11.528;2023-07-08T05:56:23;20.10;62.00
40622;DHT22;26324;52.040;11.528;2023-07-08T05:58:50;20.20;61.30
40622;DHT22;26324;52.040;11.528;2023-07-08T06:01:17;20.30;60.90
40622;DHT22;26324;52.040;11.528;2023-07-08T06:03:45;20.40;60.90
40622;DHT22;26324;52.040;11.528;2023-07-08T06:06:12;20.60;60.30
40622;DHT22;26324;52.040;11.528;2023-07-08T06:08:41;20.60;59.60
40622;DHT22;26324;52.040;11.528;2023-07-08T06:11:08;20.70;58.40
40622;DHT22;26324;52.040;11.528;2023-07-08T06:13:35;20.90;59.00
40622;DHT22;26324;52.040;11.528;2023-07-08T06:16:03;21.00;59.10
40622;DHT22;26324;52.040;11.528;2023-07-08T06:18:31;21.10;59.00
40622;DHT22;26324;52.040;11.528;2023-07-08T06:20:58;21.20;58.90
40622;DHT22;26324;52.040;11.528;2023-07-08T06:23:26;21.30;58.40
40622;DHT22;26324;52.040;11.528;2023-07-08T06:25:54;21.50;57.40
40622;DHT22;26324;52.040;11.528;2023-07-08T06:28:22;21.60;56.00
40622;DHT22;26324;52.040;11.528;2023-07-08T06:30:49;21.70;56.20
40622;DHT22;26324;52.040;11.528;2023-07-08T06:33:17;21.80;55.10
40622;DHT22;26324;52.040;11.528;2023-07-08T06:35:44;21.90;55.00
40622;DHT22;26324;52.040;11.528;2023-07-08T06:38:12;22.10;54.40
40622;DHT22;26324;52.040;11.528;2023-07-08T06:40:40;22.10;54.00
40622;DHT22;26324;52.040;11.528;2023-07-08T06:43:07;22.30;54.30
40622;DHT22;26324;52.040;11.528;2023-07-08T06:45:40;22.40;54.20
40622;DHT22;26324;52.040;11.528;2023-07-08T06:48:08;22.50;55.30
40622;DHT22;26324;52.040;11.528;2023-07-08T06:50:35;22.50;54.20
40622;DHT22;26324;52.040;11.528;2023-07-08T06:53:03;22.60;55.10
40622;DHT22;26324;52.040;11.528;2023-07-08T06:55:30;22.80;55.10
40622;DHT22;26324;52.040;11.528;2023-07-08T06:57:57;22.90;53.30
40622;DHT22;26324;52.040;11.528;2023-07-08T07:00:25;23.00;53.60
40622;DHT22;26324;52.040;11.528;2023-07-08T07:02:52;23.20;53.20
40622;DHT22;26324;52.040;11.528;2023-07-08T07:05:19;23.20;52.50
40622;DHT22;26324;52.040;11.528;2023-07-08T07:07:50;23.30;53.10
40622;DHT22;26324;52.040;11.528;2023-07-08T07:10:17;23.50;53.20
40622;DHT22;26324;52.040;11.528;2023-07-08T07:12:44;23.50;51.60
40622;DHT22;26324;52.040;11.528;2023-07-08T07:15:12;23.60;51.90
40622;DHT22;26324;52.040;11.528;2023-07-08T07:17:39;23.60;52.60
40622;DHT22;26324;52.040;11.528;2023-07-08T07:20:07;23.90;52.80
40622;DHT22;26324;52.040;11.528;2023-07-08T07:22:35;24.00;52.00
40622;DHT22;26324;52.040;11.528;2023-07-08T07:25:03;24.00;51.70
40622;DHT22;26324;52.040;11.528;2023-07-08T07:27:31;24.10;52.40
40622;DHT22;26324;52.040;11.528;2023-07-08T07:29:58;24.20;51.00
40622;DHT22;26324;52.040;11.528;2023-07-08T07:32:27;24.20;51.20
40622;DHT22;26324;52.040;11.528;2023-07-08T07:34:56;24.30;50.70
40622;DHT22;26324;52.040;11.528;2023-07-08T07:37:25;24.10;51.40
40622;DHT22;26324;52.040;11.528;2023-07-08T07:39:52;24.10;51.00
40622;DHT22;26324;52.040;11.528;2023-07-08T07:42:20;24.10;50.80
40622;DHT22;26324;52.040;11.528;2023-07-08T07:44:47;24.30;51.30
40622;DHT22;26324;52.040;11.528;2023-07-08T07:47:14;24.60;49.60
40622;DHT22;26324;52.040;11.528;2023-07-08T07:49:42;24.60;51.10
40622;DHT22;26324;52.040;11.528;2023-07-08T07:52:09;24.70;50.90
40622;DHT22;26324;52.040;11.528;2023-07-08T07:54:39;25.00;50.80
40622;DHT22;26324;52.040;11.528;2023-07-08T07:57:06;25.20;48.50
40622;DHT22;26324;52.040;11.528;2023-07-08T07:59:33;25.30;48.90
40622;DHT22;26324;52.040;11.528;2023-07-08T08:02:01;25.50;48.20
40622;DHT22;26324;52.040;11.528;2023-07-08T08:04:28;25.60;49.40
40622;DHT22;26324;52.040;11.528;2023-07-08T08:06:55;25.80;48.50
40622;DHT22;26324;52.040;11.528;2023-07-08T08:09:23;26.00;46.20
40622;DHT22;26324;52.040;11.528;2023-07-08T08:11:50;26.10;46.90
40622;DHT22;26324;52.040;11.528;2023-07-08T08:14:19;26.40;47.00
40622;DHT22;26324;52.040;11.528;2023-07-08T08:16:46;26.10;46.50
40622;DHT22;26324;52.040;11.528;2023-07-08T08:19:13;26.20;45.90
40622;DHT22;26324;52.040;11.528;2023-07-08T08:21:41;26.50;47.50
40622;DHT22;26324;52.040;11.528;2023-07-08T08:24:08;26.50;46.90
40622;DHT22;26324;52.040;11.528;2023-07-08T08:26:35;26.70;46.10
40622;DHT22;26324;52.040;11.528;2023-07-08T08:29:03;26.70;44.40
40622;DHT22;26324;52.040;11.528;2023-07-08T08:31:30;26.90;43.80
40622;DHT22;26324;52.040;11.528;2023-07-08T08:34:01;27.00;43.50
40622;DHT22;26324;52.040;11.528;2023-07-08T08:36:28;27.00;42.20
40622;DHT22;26324;52.040;11.528;2023-07-08T08:38:56;27.20;43.50
40622;DHT22;26324;52.040;11.528;2023-07-08T08:41:32;27.30;44.90
40622;DHT22;26324;52.040;11.528;2023-07-08T08:44:01;27.20;45.20
40622;DHT22;26324;52.040;11.528;2023-07-08T08:49:40;27.50;45.30
40622;DHT22;26324;52.040;11.528;2023-07-08T08:52:10;27.60;42.10
40622;DHT22;26324;52.040;11.528;2023-07-08T08:54:38;27.50;43.30
40622;DHT22;26324;52.040;11.528;2023-07-08T08:59:57;27.60;44.50
40622;DHT22;26324;52.040;11.528;2023-07-08T09:02:52;27.80;45.40
40622;DHT22;26324;52.040;11.528;2023-07-08T09:05:20;28.10;44.20
40622;DHT22;26324;52.040;11.528;2023-07-08T09:08:02;28.30;44.30
40622;DHT22;26324;52.040;11.528;2023-07-08T09:13:36;28.70;44.10
40622;DHT22;26324;52.040;11.528;2023-07-08T09:16:18;28.60;43.80
40622;DHT22;26324;52.040;11.528;2023-07-08T09:18:58;28.60;45.50
40622;DHT22;26324;52.040;11.528;2023-07-08T09:21:32;28.50;42.50
40622;DHT22;26324;52.040;11.528;2023-07-08T09:24:07;28.60;41.70
40622;DHT22;26324;52.040;11.528;2023-07-08T09:26:36;28.90;42.90
40622;DHT22;26324;52.040;11.528;2023-07-08T09:29:08;29.00;38.90
40622;DHT22;26324;52.040;11.528;2023-07-08T09:31:39;29.10;41.60
40622;DHT22;26324;52.040;11.528;2023-07-08T09:34:13;29.20;40.70
40622;DHT22;26324;52.040;11.528;2023-07-08T09:36:42;29.20;41.70
40622;DHT22;26324;52.040;11.528;2023-07-08T09:39:16;29.30;42.00
40622;DHT22;26324;52.040;11.528;2023-07-08T09:41:46;29.50;40.10
40622;DHT22;26324;52.040;11.528;2023-07-08T09:44:25;29.40;40.70
40622;DHT22;26324;52.040;11.528;2023-07-08T09:46:57;29.40;40.30
40622;DHT22;26324;52.040;11.528;2023-07-08T09:49:34;29.40;41.50
40622;DHT22;26324;52.040;11.528;2023-07-08T09:52:03;29.60;39.70
40622;DHT22;26324;52.040;11.528;2023-07-08T09:54:31;29.80;38.40
40622;DHT22;26324;52.040;11.528;2023-07-08T09:57:06;29.90;41.10
40622;DHT22;26324;52.040;11.528;2023-07-08T09:59:46;30.20;41.50
40622;DHT22;26324;52.040;11.528;2023-07-08T10:02:49;30.30;40.00
40622;DHT22;26324;52.040;11.528;2023-07-08T10:07:53;30.50;39.00
40622;DHT22;26324;52.040;11.528;2023-07-08T10:10:39;30.70;39.60
40622;DHT22;26324;52.040;11.528;2023-07-08T10:13:20;30.40;38.10
40622;DHT22;26324;52.040;11.528;2023-07-08T10:16:24;30.30;38.50
40622;DHT22;26324;52.040;11.528;2023-07-08T10:18:52;30.50;40.60
40622;DHT22;26324;52.040;11.528;2023-07-08T10:21:36;30.60;36.30
40622;DHT22;26324;52.040;11.528;2023-07-08T10:30:00;30.90;36.50
40622;DHT22;26324;52.040;11.528;2023-07-08T10:32:44;30.90;35.90
40622;DHT22;26324;52.040;11.528;2023-07-08T10:35:39;30.90;37.90
40622;DHT22;26324;52.040;11.528;2023-07-08T10:41:00;31.10;36.60
40622;DHT22;26324;52.040;11.528;2023-07-08T10:52:26;31.20;35.50
40622;DHT22;26324;52.040;11.528;2023-07-08T10:55:19;31.10;34.20
40622;DHT22;26324;52.040;11.528;2023-07-08T11:01:29;31.60;33.10
40622;DHT22;26324;52.040;11.528;2023-07-08T11:04:12;31.60;30.10
40622;DHT22;26324;52.040;11.528;2023-07-08T11:06:52;31.50;31.10
40622;DHT22;26324;52.040;11.528;2023-07-08T11:09:35;31.60;32.50
40622;DHT22;26324;52.040;11.528;2023-07-08T11:12:14;31.70;31.80
40622;DHT22;26324;52.040;11.528;2023-07-08T11:14:55;32.00;35.80
40622;DHT22;26324;52.040;11.528;2023-07-08T11:17:36;32.10;32.50
40622;DHT22;26324;52.040;11.528;2023-07-08T11:20:21;32.50;33.60
40622;DHT22;26324;52.040;11.528;2023-07-08T11:22:54;32.70;31.80
40622;DHT22;26324;52.040;11.528;2023-07-08T11:25:26;32.80;32.30
40622;DHT22;26324;52.040;11.528;2023-07-08T11:27:56;32.60;31.60
40622;DHT22;26324;52.040;11.528;2023-07-08T11:30:26;32.70;30.30
40622;DHT22;26324;52.040;11.528;2023-07-08T11:33:03;32.90;31.00
40622;DHT22;26324;52.040;11.528;2023-07-08T11:35:49;32.80;31.40
40622;DHT22;26324;52.040;11.528;2023-07-08T11:38:20;32.80;30.20
40622;DHT22;26324;52.040;11.528;2023-07-08T11:43:25;33.00;29.50
40622;DHT22;26324;52.040;11.528;2023-07-08T11:45:55;33.10;30.50
40622;DHT22;26324;52.040;11.528;2023-07-08T11:48:30;33.30;29.60
40622;DHT22;26324;52.040;11.528;2023-07-08T11:51:04;33.20;29.90
40622;DHT22;26324;52.040;11.528;2023-07-08T11:53:47;33.50;30.00
40622;DHT22;26324;52.040;11.528;2023-07-08T11:56:23;33.40;28.70
40622;DHT22;26324;52.040;11.528;2023-07-08T11:59:19;33.60;29.60
40622;DHT22;26324;52.040;11.528;2023-07-08T12:04:25;34.00;28.90
40622;DHT22;26324;52.040;11.528;2023-07-08T12:07:10;34.00;28.50
40622;DHT22;26324;52.040;11.528;2023-07-08T12:09:46;34.20;30.10
40622;DHT22;26324;52.040;11.528;2023-07-08T12:12:23;34.40;26.40
40622;DHT22;26324;52.040;11.528;2023-07-08T12:15:00;34.30;26.90
40622;DHT22;26324;52.040;11.528;2023-07-08T12:17:30;34.10;26.40
40622;DHT22;26324;52.040;11.528;2023-07-08T12:20:00;34.30;29.80
40622;DHT22;26324;52.040;11.528;2023-07-08T12:22:32;34.50;27.70
40622;DHT22;26324;52.040;11.528;2023-07-08T12:25:01;34.50;28.50
40622;DHT22;26324;52.040;11.528;2023-07-08T12:27:32;34.50;26.30
40622;DHT22;26324;52.040;11.528;2023-07-08T12:30:01;34.60;27.30
40622;DHT22;26324;52.040;11.528;2023-07-08T12:32:30;34.60;28.80
40622;DHT22;26324;52.040;11.528;2023-07-08T12:34:58;34.50;24.40
40622;DHT22;26324;52.040;11.528;2023-07-08T12:37:25;34.40;26.70
40622;DHT22;26324;52.040;11.528;2023-07-08T12:39:54;34.60;30.20
40622;DHT22;26324;52.040;11.528;2023-07-08T12:42:22;34.60;25.80
40622;DHT22;26324;52.040;11.528;2023-07-08T12:44:50;34.60;25.20
40622;DHT22;26324;52.040;11.528;2023-07-08T12:47:19;34.70;24.90
40622;DHT22;26324;52.040;11.528;2023-07-08T12:49:48;34.80;25.20
40622;DHT22;26324;52.040;11.528;2023-07-08T12:52:23;34.70;22.60
40622;DHT22;26324;52.040;11.528;2023-07-08T12:54:51;34.90;25.00
40622;DHT22;26324;52.040;11.528;2023-07-08T12:57:19;35.00;26.90
40622;DHT22;26324;52.040;11.528;2023-07-08T12:59:47;35.20;27.00
40622;DHT22;26324;52.040;11.528;2023-07-08T13:02:15;35.30;24.50
40622;DHT22;26324;52.040;11.528;2023-07-08T13:04:46;35.30;23.40
40622;DHT22;26324;52.040;11.528;2023-07-08T13:07:36;35.30;21.10
40622;DHT22;26324;52.040;11.528;2023-07-08T13:10:07;35.60;26.30
40622;DHT22;26324;52.040;11.528;2023-07-08T13:12:39;35.90;27.00
40622;DHT22;26324;52.040;11.528;2023-07-08T13:15:16;36.10;25.90
40622;DHT22;26324;52.040;11.528;2023-07-08T13:17:45;36.30;24.20
40622;DHT22;26324;52.040;11.528;2023-07-08T13:20:16;36.40;23.60
40622;DHT22;26324;52.040;11.528;2023-07-08T13:22:51;36.40;22.40
40622;DHT22;26324;52.040;11.528;2023-07-08T13:25:25;36.60;24.60
40622;DHT22;26324;52.040;11.528;2023-07-08T13:28:02;36.90;25.00
40622;DHT22;26324;52.040;11.528;2023-07-08T13:30:30;37.30;22.90
40622;DHT22;26324;52.040;11.528;2023-07-08T13:32:59;37.20;20.20
40622;DHT22;26324;52.040;11.528;2023-07-08T13:35:38;37.40;20.00
40622;DHT22;26324;52.040;11.528;2023-07-08T13:38:13;37.50;21.10
40622;DHT22;26324;52.040;11.528;2023-07-08T13:40:46;37.70;22.50
40622;DHT22;26324;52.040;11.528;2023-07-08T13:43:15;38.40;21.40
40622;DHT22;26324;52.040;11.528;2023-07-08T13:45:45;39.20;23.90
40622;DHT22;26324;52.040;11.528;2023-07-08T13:51:19;40.30;18.60
40622;DHT22;26324;52.040;11.528;2023-07-08T13:53:50;40.90;18.40
40622;DHT22;26324;52.040;11.528;2023-07-08T13:56:25;41.30;20.80
40622;DHT22;26324;52.040;11.528;2023-07-08T13:59:06;41.70;17.20
40622;DHT22;26324;52.040;11.528;2023-07-08T14:01:37;41.80;17.20
40622;DHT22;26324;52.040;11.528;2023-07-08T14:04:06;42.00;18.80
40622;DHT22;26324;52.040;11.528;2023-07-08T14:06:38;42.30;16.90
40622;DHT22;26324;52.040;11.528;2023-07-08T14:09:26;42.80;18.30
40622;DHT22;26324;52.040;11.528;2023-07-08T14:11:54;43.00;18.10
40622;DHT22;26324;52.040;11.528;2023-07-08T14:14:21;43.20;18.00
40622;DHT22;26324;52.040;11.528;2023-07-08T14:16:51;43.50;17.30
40622;DHT22;26324;52.040;11.528;2023-07-08T14:19:26;43.70;17.30
40622;DHT22;26324;52.040;11.528;2023-07-08T14:21:56;43.00;18.30
40622;DHT22;26324;52.040;11.528;2023-07-08T14:24:24;42.90;16.80
40622;DHT22;26324;52.040;11.528;2023-07-08T14:26:53;42.70;17.40
40622;DHT22;26324;52.040;11.528;2023-07-08T14:29:21;42.90;16.90
40622;DHT22;26324;52.040;11.528;2023-07-08T14:31:49;43.30;19.10
40622;DHT22;26324;52.040;11.528;2023-07-08T14:34:23;43.80;18.30
40622;DHT22;26324;52.040;11.528;2023-07-08T14:36:52;44.10;17.10
40622;DHT22;26324;52.040;11.528;2023-07-08T14:39:20;44.50;17.80
40622;DHT22;26324;52.040;11.528;2023-07-08T14:41:49;44.80;17.80
40622;DHT22;26324;52.040;11.528;2023-07-08T14:44:27;44.90;17.10
40622;DHT22;26324;52.040;11.528;2023-07-08T14:46:58;45.10;17.70
40622;DHT22;26324;52.040;11.528;2023-07-08T14:49:26;45.50;17.00
40622;DHT22;26324;52.040;11.528;2023-07-08T14:51:54;45.70;16.40
40622;DHT22;26324;52.040;11.528;2023-07-08T14:54:22;46.00;16.10
40622;DHT22;26324;52.040;11.528;2023-07-08T14:56:50;46.10;15.20
40622;DHT22;26324;52.040;11.528;2023-07-08T14:59:19;45.90;15.00
40622;DHT22;26324;52.040;11.528;2023-07-08T15:01:48;45.60;15.30
40622;DHT22;26324;52.040;11.528;2023-07-08T15:04:17;45.50;15.80
40622;DHT22;26324;52.040;11.528;2023-07-08T15:06:45;45.20;15.90
40622;DHT22;26324;52.040;11.528;2023-07-08T15:09:13;45.30;17.90
40622;DHT22;26324;52.040;11.528;2023-07-08T15:11:41;45.60;15.30
40622;DHT22;26324;52.040;11.528;2023-07-08T15:14:24;46.00;15.70
40622;DHT22;26324;52.040;11.528;2023-07-08T15:16:53;46.00;14.90
40622;DHT22;26324;52.040;11.528;2023-07-08T15:19:22;46.00;13.60
40622;DHT22;26324;52.040;11.528;2023-07-08T15:21:51;46.10;15.70
40622;DHT22;26324;52.040;11.528;2023-07-08T15:24:18;46.30;14.50
40622;DHT22;26324;52.040;11.528;2023-07-08T15:26:46;46.50;15.00
40622;DHT22;26324;52.040;11.528;2023-07-08T15:29:22;46.50;15.10
40622;DHT22;26324;52.040;11.528;2023-07-08T15:31:50;46.70;15.00
40622;DHT22;26324;52.040;11.528;2023-07-08T15:34:20;47.00;14.40
40622;DHT22;26324;52.040;11.528;2023-07-08T15:36:49;47.10;14.20
40622;DHT22;26324;52.040;11.528;2023-07-08T15:39:17;47.10;13.80
40622;DHT22;26324;52.040;11.528;2023-07-08T15:41:44;47.10;14.70
40622;DHT22;26324;52.040;11.528;2023-07-08T15:44:13;47.30;16.10
40622;DHT22;26324;52.040;11.528;2023-07-08T15:46:46;47.50;14.30
40622;DHT22;26324;52.040;11.528;2023-07-08T15:49:18;47.60;13.60
40622;DHT22;26324;52.040;11.528;2023-07-08T15:51:46;47.60;13.80
40622;DHT22;26324;52.040;11.528;2023-07-08T15:54:19;47.40;12.40
40622;DHT22;26324;52.040;11.528;2023-07-08T15:56:49;47.00;13.80
40622;DHT22;26324;52.040;11.528;2023-07-08T15:59:21;46.90;12.30
40622;DHT22;26324;52.040;11.528;2023-07-08T16:01:51;46.50;13.10
40622;DHT22;26324;52.040;11.528;2023-07-08T16:04:25;46.30;14.20
40622;DHT22;26324;52.040;11.528;2023-07-08T16:06:53;46.60;15.90
40622;DHT22;26324;52.040;11.528;2023-07-08T16:09:22;47.00;14.30
40622;DHT22;26324;52.040;11.528;2023-07-08T16:11:50;47.10;14.80
40622;DHT22;26324;52.040;11.528;2023-07-08T16:14:18;47.30;13.80
40622;DHT22;26324;52.040;11.528;2023-07-08T16:16:46;47.50;14.30
40622;DHT22;26324;52.040;11.528;2023-07-08T16:19:14;47.70;14.70
40622;DHT22;26324;52.040;11.528;2023-07-08T16:21:42;47.60;14.70
40622;DHT22;26324;52.040;11.528;2023-07-08T16:24:10;47.50;14.40
40622;DHT22;26324;52.040;11.528;2023-07-08T16:26:39;47.20;14.00